sensor_id;sensor_type;location;lat;lon;timestamp;P1;durP1;ratioP1;P2;durP2;ratioP2
18176;SDS011;9213;50.858;3.964;2023-02-28T00:01:08;9.30;;;5.87;;
18176;SDS011;9213;50.858;3.964;2023-02-28T00:03:36;9.90;;;5.83;;
18176;SDS011;9213;50.858;3.964;2023-02-28T00:06:03;8.17;;;6.30;;
18176;SDS011;9213;50.858;3.964;2023-02-28T00:08:31;7.23;;;5.70;;
18176;SDS011;9213;50.858;3.964;2023-02-28T00:11:01;6.70;;;5.50;;
18176;SDS011;9213;50.858;3.964;2023-02-28T00:13:29;10.67;;;6.67;;
18176;SDS011;9213;50.858;3.964;2023-02-28T00:15:59;7.17;;;5.93;;
18176;SDS011;9213;50.858;3.964;2023-02-28T00:18:27;7.13;;;5.93;;
18176;SDS011;9213;50.858;3.964;2023-02-28T00:20:54;10.03;;;6.47;;
18176;SDS011;9213;50.858;3.964;2023-02-28T00:23:21;7.83;;;6.20;;
18176;SDS011;9213;50.858;3.964;2023-02-28T00:25:48;11.10;;;6.50;;
18176;SDS011;9213;50.858;3.964;2023-02-28T00:28:17;9.20;;;5.77;;
18176;SDS011;9213;50.858;3.964;2023-02-28T00:30:44;10.50;;;6.40;;
18176;SDS011;9213;50.858;3.964;2023-02-28T00:33:12;8.53;;;6.07;;
18176;SDS011;9213;50.858;3.964;2023-02-28T00:35:39;9.27;;;6.57;;
18176;SDS011;9213;50.858;3.964;2023-02-28T00:38:06;8.27;;;5.77;;
18176;SDS011;9213;50.858;3.964;2023-02-28T00:40:33;10.17;;;6.67;;
18176;SDS011;9213;50.858;3.964;2023-02-28T00:43:00;8.77;;;6.80;;
18176;SDS011;9213;50.858;3.964;2023-02-28T00:45:29;7.50;;;6.63;;
18176;SDS011;9213;50.858;3.964;2023-02-28T00:47:56;7.70;;;6.30;;
18176;SDS011;9213;50.858;3.964;2023-02-28T00:50:23;7.73;;;6.00;;
18176;SDS011;9213;50.858;3.964;2023-02-28T00:52:50;8.50;;;6.43;;
18176;SDS011;9213;50.858;3.964;2023-02-28T00:55:17;10.17;;;6.30;;
18176;SDS011;9213;50.858;3.964;2023-02-28T00:57:44;7.00;;;6.20;;
18176;SDS011;9213;50.858;3.964;2023-02-28T01:00:12;9.17;;;6.20;;
18176;SDS011;9213;50.858;3.964;2023-02-28T01:02:40;12.30;;;6.50;;
18176;SDS011;9213;50.858;3.964;2023-02-28T01:05:07;9.70;;;6.80;;
18176;SDS011;9213;50.858;3.964;2023-02-28T01:07:34;12.23;;;6.30;;
18176;SDS011;9213;50.858;3.964;2023-02-28T01:10:01;8.83;;;6.57;;
18176;SDS011;9213;50.858;3.964;2023-02-28T01:12:29;11.50;;;6.20;;
18176;SDS011;9213;50.858;3.964;2023-02-28T01:14:56;9.40;;;7.07;;
18176;SDS011;9213;50.858;3.964;2023-02-28T01:17:23;9.60;;;6.33;;
18176;SDS011;9213;50.858;3.964;2023-02-28T01:19:54;9.80;;;6.47;;
18176;SDS011;9213;50.858;3.964;2023-02-28T01:22:21;9.80;;;6.33;;
18176;SDS011;9213;50.858;3.964;2023-02-28T01:24:48;6.80;;;6.20;;
18176;SDS011;9213;50.858;3.964;2023-02-28T01:27:15;8.47;;;6.33;;
18176;SDS011;9213;50.858;3.964;2023-02-28T01:29:42;10.60;;;6.70;;
18176;SDS011;9213;50.858;3.964;2023-02-28T01:32:09;9.10;;;6.17;;
18176;SDS011;9213;50.858;3.964;2023-02-28T01:34:36;10.33;;;6.37;;
18176;SDS011;9213;50.858;3.964;2023-02-28T01:37:04;9.37;;;6.90;;
18176;SDS011;9213;50.858;3.964;2023-02-28T01:39:31;9.00;;;6.30;;
18176;SDS011;9213;50.858;3.964;2023-02-28T01:41:58;8.10;;;6.73;;
18176;SDS011;9213;50.858;3.964;2023-02-28T01:47:22;9.97;;;6.13;;
18176;SDS011;9213;50.858;3.964;2023-02-28T01:49:52;10.17;;;7.00;;
18176;SDS011;9213;50.858;3.964;2023-02-28T01:52:20;10.33;;;6.80;;
18176;SDS011;9213;50.858;3.964;2023-02-28T01:54:50;7.87;;;6.97;;
18176;SDS011;9213;50.858;3.964;2023-02-28T01:57:20;8.20;;;6.57;;
18176;SDS011;9213;50.858;3.964;2023-02-28T01:59:52;10.43;;;7.33;;
18176;SDS011;9213;50.858;3.964;2023-02-28T02:02:24;11.43;;;6.83;;
18176;SDS011;9213;50.858;3.964;2023-02-28T02:04:54;10.10;;;6.43;;
18176;SDS011;9213;50.858;3.964;2023-02-28T02:07:27;7.90;;;6.60;;
18176;SDS011;9213;50.858;3.964;2023-02-28T02:10:00;10.60;;;6.53;;
18176;SDS011;9213;50.858;3.964;2023-02-28T02:12:32;13.23;;;6.70;;
18176;SDS011;9213;50.858;3.964;2023-02-28T02:15:16;8.47;;;6.93;;
18176;SDS011;9213;50.858;3.964;2023-02-28T02:17:48;7.93;;;6.17;;
18176;SDS011;9213;50.858;3.964;2023-02-28T02:23:34;10.70;;;6.33;;
18176;SDS011;9213;50.858;3.964;2023-02-28T02:26:25;10.73;;;7.10;;
18176;SDS011;9213;50.858;3.964;2023-02-28T02:29:15;9.60;;;6.50;;
18176;SDS011;9213;50.858;3.964;2023-02-28T02:35:30;10.37;;;6.43;;
18176;SDS011;9213;50.858;3.964;2023-02-28T02:38:00;9.20;;;6.30;;
18176;SDS011;9213;50.858;3.964;2023-02-28T02:40:35;9.27;;;7.43;;
18176;SDS011;9213;50.858;3.964;2023-02-28T02:43:06;7.97;;;6.83;;
18176;SDS011;9213;50.858;3.964;2023-02-28T02:45:38;9.73;;;7.27;;
18176;SDS011;9213;50.858;3.964;2023-02-28T02:48:09;8.37;;;7.20;;
18176;SDS011;9213;50.858;3.964;2023-02-28T02:50:42;8.80;;;7.37;;
18176;SDS011;9213;50.858;3.964;2023-02-28T02:53:12;11.70;;;7.20;;
18176;SDS011;9213;50.858;3.964;2023-02-28T02:55:43;9.23;;;7.07;;
18176;SDS011;9213;50.858;3.964;2023-02-28T02:58:13;11.30;;;7.47;;
18176;SDS011;9213;50.858;3.964;2023-02-28T03:00:45;11.13;;;7.27;;
18176;SDS011;9213;50.858;3.964;2023-02-28T03:03:15;13.20;;;7.77;;
18176;SDS011;9213;50.858;3.964;2023-02-28T03:05:47;12.50;;;7.77;;
18176;SDS011;9213;50.858;3.964;2023-02-28T03:08:16;11.97;;;8.33;;
18176;SDS011;9213;50.858;3.964;2023-02-28T03:10:43;8.97;;;7.63;;
18176;SDS011;9213;50.858;3.964;2023-02-28T03:13:19;9.60;;;7.57;;
18176;SDS011;9213;50.858;3.964;2023-02-28T03:16:14;14.23;;;8.63;;
18176;SDS011;9213;50.858;3.964;2023-02-28T03:18:58;11.00;;;7.17;;
18176;SDS011;9213;50.858;3.964;2023-02-28T03:21:56;10.13;;;8.13;;
18176;SDS011;9213;50.858;3.964;2023-02-28T03:24:31;13.63;;;8.63;;
18176;SDS011;9213;50.858;3.964;2023-02-28T03:27:05;13.70;;;8.03;;
18176;SDS011;9213;50.858;3.964;2023-02-28T03:29:35;11.40;;;8.57;;
18176;SDS011;9213;50.858;3.964;2023-02-28T03:32:05;13.77;;;8.57;;
18176;SDS011;9213;50.858;3.964;2023-02-28T03:34:39;11.57;;;8.60;;
18176;SDS011;9213;50.858;3.964;2023-02-28T03:37:14;9.57;;;8.00;;
18176;SDS011;9213;50.858;3.964;2023-02-28T03:39:46;11.30;;;8.50;;
18176;SDS011;9213;50.858;3.964;2023-02-28T03:42:18;12.30;;;8.27;;
18176;SDS011;9213;50.858;3.964;2023-02-28T03:44:48;10.90;;;8.40;;
18176;SDS011;9213;50.858;3.964;2023-02-28T03:47:19;11.93;;;8.50;;
18176;SDS011;9213;50.858;3.964;2023-02-28T03:49:51;11.37;;;8.43;;
18176;SDS011;9213;50.858;3.964;2023-02-28T03:52:25;10.60;;;8.30;;
18176;SDS011;9213;50.858;3.964;2023-02-28T03:54:56;12.97;;;8.63;;
18176;SDS011;9213;50.858;3.964;2023-02-28T03:57:30;13.47;;;8.70;;
18176;SDS011;9213;50.858;3.964;2023-02-28T04:00:04;10.70;;;8.13;;
18176;SDS011;9213;50.858;3.964;2023-02-28T04:02:36;14.07;;;8.33;;
18176;SDS011;9213;50.858;3.964;2023-02-28T04:05:03;11.43;;;8.37;;
18176;SDS011;9213;50.858;3.964;2023-02-28T04:07:31;15.33;;;8.53;;
18176;SDS011;9213;50.858;3.964;2023-02-28T04:09:59;12.37;;;8.70;;
18176;SDS011;9213;50.858;3.964;2023-02-28T04:12:25;13.10;;;8.63;;
18176;SDS011;9213;50.858;3.964;2023-02-28T04:14:52;11.13;;;8.37;;
18176;SDS011;9213;50.858;3.964;2023-02-28T04:17:19;11.87;;;9.63;;
18176;SDS011;9213;50.858;3.964;2023-02-28T04:19:46;12.47;;;8.53;;
18176;SDS011;9213;50.858;3.964;2023-02-28T04:22:13;13.00;;;8.63;;
18176;SDS011;9213;50.858;3.964;2023-02-28T04:24:43;11.67;;;8.83;;
18176;SDS011;9213;50.858;3.964;2023-02-28T04:27:10;15.30;;;9.80;;
18176;SDS011;9213;50.858;3.964;2023-02-28T04:29:37;13.57;;;8.47;;
18176;SDS011;9213;50.858;3.964;2023-02-28T04:32:04;12.87;;;8.63;;
18176;SDS011;9213;50.858;3.964;2023-02-28T04:34:31;14.70;;;9.00;;
18176;SDS011;9213;50.858;3.964;2023-02-28T04:36:59;12.37;;;8.57;;
18176;SDS011;9213;50.858;3.964;2023-02-28T04:39:26;14.13;;;8.90;;
18176;SDS011;9213;50.858;3.964;2023-02-28T04:41:54;17.23;;;9.93;;
18176;SDS011;9213;50.858;3.964;2023-02-28T04:44:21;13.70;;;9.27;;
18176;SDS011;9213;50.858;3.964;2023-02-28T04:46:49;13.07;;;9.90;;
18176;SDS011;9213;50.858;3.964;2023-02-28T04:49:16;13.40;;;9.80;;
18176;SDS011;9213;50.858;3.964;2023-02-28T04:51:43;12.07;;;9.10;;
18176;SDS011;9213;50.858;3.964;2023-02-28T04:54:10;13.20;;;9.53;;
18176;SDS011;9213;50.858;3.964;2023-02-28T04:56:38;11.37;;;8.63;;
18176;SDS011;9213;50.858;3.964;2023-02-28T04:59:06;13.07;;;9.00;;
18176;SDS011;9213;50.858;3.964;2023-02-28T05:01:33;12.20;;;8.60;;
18176;SDS011;9213;50.858;3.964;2023-02-28T05:04:02;13.77;;;9.50;;
18176;SDS011;9213;50.858;3.964;2023-02-28T05:06:30;13.97;;;8.87;;
18176;SDS011;9213;50.858;3.964;2023-02-28T05:08:58;12.20;;;8.90;;
18176;SDS011;9213;50.858;3.964;2023-02-28T05:11:27;15.43;;;8.67;;
18176;SDS011;9213;50.858;3.964;2023-02-28T05:13:59;13.03;;;8.97;;
18176;SDS011;9213;50.858;3.964;2023-02-28T05:16:28;11.93;;;9.27;;
18176;SDS011;9213;50.858;3.964;2023-02-28T05:18:55;12.20;;;8.90;;
18176;SDS011;9213;50.858;3.964;2023-02-28T05:21:26;13.83;;;8.87;;
18176;SDS011;9213;50.858;3.964;2023-02-28T05:23:55;11.73;;;9.17;;
18176;SDS011;9213;50.858;3.964;2023-02-28T05:26:23;13.10;;;8.80;;
18176;SDS011;9213;50.858;3.964;2023-02-28T05:28:51;12.63;;;8.03;;
18176;SDS011;9213;50.858;3.964;2023-02-28T05:31:18;10.43;;;8.53;;
18176;SDS011;9213;50.858;3.964;2023-02-28T05:33:46;13.00;;;8.73;;
18176;SDS011;9213;50.858;3.964;2023-02-28T05:36:13;10.93;;;8.40;;
18176;SDS011;9213;50.858;3.964;2023-02-28T05:38:40;10.23;;;9.07;;
18176;SDS011;9213;50.858;3.964;2023-02-28T05:41:08;13.43;;;8.37;;
18176;SDS011;9213;50.858;3.964;2023-02-28T05:43:35;11.47;;;8.57;;
18176;SDS011;9213;50.858;3.964;2023-02-28T05:46:04;15.07;;;9.63;;
18176;SDS011;9213;50.858;3.964;2023-02-28T05:48:31;11.07;;;8.60;;
18176;SDS011;9213;50.858;3.964;2023-02-28T05:51:00;12.53;;;9.50;;
18176;SDS011;9213;50.858;3.964;2023-02-28T05:53:27;10.73;;;8.40;;
18176;SDS011;9213;50.858;3.964;2023-02-28T05:55:55;11.20;;;9.10;;
18176;SDS011;9213;50.858;3.964;2023-02-28T05:58:22;13.17;;;9.47;;
18176;SDS011;9213;50.858;3.964;2023-02-28T06:00:54;11.57;;;9.20;;
18176;SDS011;9213;50.858;3.964;2023-02-28T06:03:21;11.43;;;8.80;;
18176;SDS011;9213;50.858;3.964;2023-02-28T06:05:48;13.93;;;9.67;;
18176;SDS011;9213;50.858;3.964;2023-02-28T06:08:16;13.40;;;9.30;;
18176;SDS011;9213;50.858;3.964;2023-02-28T06:10:44;13.73;;;9.80;;
18176;SDS011;9213;50.858;3.964;2023-02-28T06:13:11;16.27;;;10.00;;
18176;SDS011;9213;50.858;3.964;2023-02-28T06:15:38;14.70;;;10.50;;
18176;SDS011;9213;50.858;3.964;2023-02-28T06:18:05;12.07;;;8.93;;
18176;SDS011;9213;50.858;3.964;2023-02-28T06:20:32;13.57;;;9.60;;
18176;SDS011;9213;50.858;3.964;2023-02-28T06:22:59;12.67;;;9.90;;
18176;SDS011;9213;50.858;3.964;2023-02-28T06:25:27;13.73;;;9.73;;
18176;SDS011;9213;50.858;3.964;2023-02-28T06:27:55;15.17;;;9.60;;
18176;SDS011;9213;50.858;3.964;2023-02-28T06:30:22;16.50;;;10.17;;
18176;SDS011;9213;50.858;3.964;2023-02-28T06:32:52;13.60;;;9.20;;
18176;SDS011;9213;50.858;3.964;2023-02-28T06:35:19;16.33;;;10.20;;
18176;SDS011;9213;50.858;3.964;2023-02-28T06:37:46;11.63;;;10.10;;
18176;SDS011;9213;50.858;3.964;2023-02-28T06:40:13;14.93;;;10.00;;
18176;SDS011;9213;50.858;3.964;2023-02-28T06:42:42;13.97;;;9.47;;
18176;SDS011;9213;50.858;3.964;2023-02-28T06:45:09;11.13;;;9.27;;
18176;SDS011;9213;50.858;3.964;2023-02-28T06:47:37;12.87;;;9.87;;
18176;SDS011;9213;50.858;3.964;2023-02-28T06:50:06;12.07;;;9.47;;
18176;SDS011;9213;50.858;3.964;2023-02-28T06:52:35;16.80;;;9.60;;
18176;SDS011;9213;50.858;3.964;2023-02-28T06:55:03;13.67;;;9.47;;
18176;SDS011;9213;50.858;3.964;2023-02-28T06:57:31;13.03;;;9.83;;
18176;SDS011;9213;50.858;3.964;2023-02-28T07:00:02;13.27;;;9.40;;
18176;SDS011;9213;50.858;3.964;2023-02-28T07:02:32;14.20;;;9.87;;
18176;SDS011;9213;50.858;3.964;2023-02-28T07:05:00;11.37;;;9.43;;
18176;SDS011;9213;50.858;3.964;2023-02-28T07:07:26;12.03;;;9.60;;
18176;SDS011;9213;50.858;3.964;2023-02-28T07:09:53;13.70;;;9.20;;
18176;SDS011;9213;50.858;3.964;2023-02-28T07:12:20;15.37;;;8.90;;
18176;SDS011;9213;50.858;3.964;2023-02-28T07:14:47;13.37;;;9.47;;
18176;SDS011;9213;50.858;3.964;2023-02-28T07:17:16;11.83;;;8.90;;
18176;SDS011;9213;50.858;3.964;2023-02-28T07:19:43;13.33;;;8.77;;
18176;SDS011;9213;50.858;3.964;2023-02-28T07:22:09;11.30;;;8.80;;
18176;SDS011;9213;50.858;3.964;2023-02-28T07:24:36;10.90;;;8.77;;
18176;SDS011;9213;50.858;3.964;2023-02-28T07:27:03;13.10;;;8.47;;
18176;SDS011;9213;50.858;3.964;2023-02-28T07:29:31;15.67;;;9.83;;
18176;SDS011;9213;50.858;3.964;2023-02-28T07:31:58;15.77;;;8.93;;
18176;SDS011;9213;50.858;3.964;2023-02-28T07:34:26;11.43;;;8.77;;
18176;SDS011;9213;50.858;3.964;2023-02-28T07:36:53;11.83;;;8.57;;
18176;SDS011;9213;50.858;3.964;2023-02-28T07:39:20;12.47;;;8.97;;
18176;SDS011;9213;50.858;3.964;2023-02-28T07:41:48;13.80;;;8.90;;
18176;SDS011;9213;50.858;3.964;2023-02-28T07:44:15;15.27;;;9.17;;
18176;SDS011;9213;50.858;3.964;2023-02-28T07:46:42;11.50;;;8.60;;
18176;SDS011;9213;50.858;3.964;2023-02-28T07:49:09;13.30;;;8.57;;
18176;SDS011;9213;50.858;3.964;2023-02-28T07:51:37;11.63;;;9.00;;
18176;SDS011;9213;50.858;3.964;2023-02-28T07:54:04;16.47;;;9.90;;
18176;SDS011;9213;50.858;3.964;2023-02-28T07:56:31;17.67;;;9.37;;
18176;SDS011;9213;50.858;3.964;2023-02-28T07:58:58;11.90;;;8.83;;
18176;SDS011;9213;50.858;3.964;2023-02-28T08:01:26;10.73;;;8.40;;
18176;SDS011;9213;50.858;3.964;2023-02-28T08:03:53;13.83;;;9.17;;
18176;SDS011;9213;50.858;3.964;2023-02-28T08:06:23;12.23;;;8.93;;
18176;SDS011;9213;50.858;3.964;2023-02-28T08:08:52;13.07;;;8.77;;
18176;SDS011;9213;50.858;3.964;2023-02-28T08:11:21;11.13;;;8.47;;
18176;SDS011;9213;50.858;3.964;2023-02-28T08:13:48;12.27;;;8.67;;
18176;SDS011;9213;50.858;3.964;2023-02-28T08:16:17;13.63;;;9.57;;
18176;SDS011;9213;50.858;3.964;2023-02-28T08:18:47;11.20;;;8.50;;
18176;SDS011;9213;50.858;3.964;2023-02-28T08:21:14;11.60;;;8.60;;
18176;SDS011;9213;50.858;3.964;2023-02-28T08:23:41;12.97;;;8.73;;
18176;SDS011;9213;50.858;3.964;2023-02-28T08:26:09;11.20;;;7.97;;
18176;SDS011;9213;50.858;3.964;2023-02-28T08:28:36;11.73;;;7.63;;
18176;SDS011;9213;50.858;3.964;2023-02-28T08:31:06;10.97;;;7.97;;
18176;SDS011;9213;50.858;3.964;2023-02-28T08:33:35;10.73;;;8.27;;
18176;SDS011;9213;50.858;3.964;2023-02-28T08:36:02;11.40;;;7.53;;
18176;SDS011;9213;50.858;3.964;2023-02-28T08:38:29;16.30;;;8.83;;
18176;SDS011;9213;50.858;3.964;2023-02-28T08:41:00;12.33;;;8.07;;
18176;SDS011;9213;50.858;3.964;2023-02-28T08:43:29;8.80;;;7.13;;
18176;SDS011;9213;50.858;3.964;2023-02-28T08:45:56;11.70;;;7.43;;
18176;SDS011;9213;50.858;3.964;2023-02-28T08:48:23;9.07;;;6.97;;
18176;SDS011;9213;50.858;3.964;2023-02-28T08:50:54;8.53;;;6.77;;
18176;SDS011;9213;50.858;3.964;2023-02-28T08:53:22;7.83;;;6.87;;
18176;SDS011;9213;50.858;3.964;2023-02-28T08:55:55;6.27;;;5.67;;
18176;SDS011;9213;50.858;3.964;2023-02-28T08:58:22;8.83;;;6.33;;
18176;SDS011;9213;50.858;3.964;2023-02-28T09:00:51;6.80;;;5.90;;
18176;SDS011;9213;50.858;3.964;2023-02-28T09:03:18;7.43;;;5.90;;
18176;SDS011;9213;50.858;3.964;2023-02-28T09:05:51;7.87;;;5.97;;
18176;SDS011;9213;50.858;3.964;2023-02-28T09:08:19;6.93;;;5.87;;
18176;SDS011;9213;50.858;3.964;2023-02-28T09:10:47;7.57;;;5.53;;
18176;SDS011;9213;50.858;3.964;2023-02-28T09:13:13;9.13;;;5.90;;
18176;SDS011;9213;50.858;3.964;2023-02-28T09:15:40;8.67;;;6.07;;
18176;SDS011;9213;50.858;3.964;2023-02-28T09:18:09;8.50;;;6.30;;
18176;SDS011;9213;50.858;3.964;2023-02-28T09:20:37;6.60;;;5.80;;
18176;SDS011;9213;50.858;3.964;2023-02-28T09:23:04;7.27;;;5.23;;
18176;SDS011;9213;50.858;3.964;2023-02-28T09:25:31;7.43;;;4.73;;
18176;SDS011;9213;50.858;3.964;2023-02-28T09:27:58;7.10;;;4.80;;
18176;SDS011;9213;50.858;3.964;2023-02-28T09:30:25;6.40;;;5.40;;
18176;SDS011;9213;50.858;3.964;2023-02-28T09:32:53;6.20;;;4.80;;
18176;SDS011;9213;50.858;3.964;2023-02-28T09:35:22;6.20;;;4.47;;
18176;SDS011;9213;50.858;3.964;2023-02-28T09:37:52;5.40;;;4.90;;
18176;SDS011;9213;50.858;3.964;2023-02-28T09:40:19;4.50;;;4.10;;
18176;SDS011;9213;50.858;3.964;2023-02-28T09:42:49;6.03;;;3.77;;
18176;SDS011;9213;50.858;3.964;2023-02-28T09:45:27;6.57;;;4.10;;
18176;SDS011;9213;50.858;3.964;2023-02-28T09:47:58;4.80;;;4.30;;
18176;SDS011;9213;50.858;3.964;2023-02-28T09:50:32;4.30;;;3.90;;
18176;SDS011;9213;50.858;3.964;2023-02-28T09:53:03;5.00;;;3.40;;
18176;SDS011;9213;50.858;3.964;2023-02-28T09:55:39;4.10;;;3.70;;
18176;SDS011;9213;50.858;3.964;2023-02-28T09:58:12;6.60;;;3.60;;
18176;SDS011;9213;50.858;3.964;2023-02-28T10:00:44;4.27;;;3.87;;
18176;SDS011;9213;50.858;3.964;2023-02-28T10:03:24;4.10;;;3.57;;
18176;SDS011;9213;50.858;3.964;2023-02-28T10:05:58;3.17;;;2.87;;
18176;SDS011;9213;50.858;3.964;2023-02-28T10:08:32;3.57;;;2.20;;
18176;SDS011;9213;50.858;3.964;2023-02-28T10:11:09;2.50;;;2.30;;
18176;SDS011;9213;50.858;3.964;2023-02-28T10:13:40;5.93;;;2.97;;
18176;SDS011;9213;50.858;3.964;2023-02-28T10:16:19;3.50;;;2.80;;
18176;SDS011;9213;50.858;3.964;2023-02-28T10:18:51;3.20;;;2.47;;
18176;SDS011;9213;50.858;3.964;2023-02-28T10:21:23;2.67;;;2.47;;
18176;SDS011;9213;50.858;3.964;2023-02-28T10:23:57;3.40;;;2.97;;
18176;SDS011;9213;50.858;3.964;2023-02-28T10:26:29;5.50;;;2.70;;
18176;SDS011;9213;50.858;3.964;2023-02-28T10:28:58;3.20;;;2.60;;
18176;SDS011;9213;50.858;3.964;2023-02-28T10:31:25;2.90;;;2.50;;
18176;SDS011;9213;50.858;3.964;2023-02-28T10:33:52;3.10;;;2.80;;
18176;SDS011;9213;50.858;3.964;2023-02-28T10:36:20;3.00;;;2.80;;
18176;SDS011;9213;50.858;3.964;2023-02-28T10:38:48;3.50;;;3.20;;
18176;SDS011;9213;50.858;3.964;2023-02-28T10:41:17;3.30;;;2.83;;
18176;SDS011;9213;50.858;3.964;2023-02-28T10:44:12;3.53;;;2.70;;
18176;SDS011;9213;50.858;3.964;2023-02-28T10:46:40;2.60;;;2.40;;
18176;SDS011;9213;50.858;3.964;2023-02-28T10:49:12;2.60;;;2.40;;
18176;SDS011;9213;50.858;3.964;2023-02-28T10:51:41;4.03;;;2.57;;
18176;SDS011;9213;50.858;3.964;2023-02-28T10:54:16;3.03;;;2.40;;
18176;SDS011;9213;50.858;3.964;2023-02-28T10:56:45;2.50;;;2.30;;
18176;SDS011;9213;50.858;3.964;2023-02-28T10:59:26;3.83;;;2.43;;
18176;SDS011;9213;50.858;3.964;2023-02-28T11:01:54;2.80;;;2.30;;
18176;SDS011;9213;50.858;3.964;2023-02-28T11:04:31;2.60;;;2.40;;
18176;SDS011;9213;50.858;3.964;2023-02-28T11:07:03;3.40;;;2.40;;
18176;SDS011;9213;50.858;3.964;2023-02-28T11:09:34;6.77;;;2.37;;
18176;SDS011;9213;50.858;3.964;2023-02-28T11:12:04;2.60;;;2.40;;
18176;SDS011;9213;50.858;3.964;2023-02-28T11:14:35;4.30;;;3.00;;
18176;SDS011;9213;50.858;3.964;2023-02-28T11:17:13;3.23;;;2.33;;
18176;SDS011;9213;50.858;3.964;2023-02-28T11:19:45;2.47;;;2.27;;
18176;SDS011;9213;50.858;3.964;2023-02-28T11:22:17;5.40;;;3.03;;
18176;SDS011;9213;50.858;3.964;2023-02-28T11:24:48;2.83;;;2.50;;
18176;SDS011;9213;50.858;3.964;2023-02-28T11:30:26;2.40;;;2.20;;
18176;SDS011;9213;50.858;3.964;2023-02-28T11:32:55;2.70;;;2.47;;
18176;SDS011;9213;50.858;3.964;2023-02-28T11:35:24;3.00;;;2.50;;
18176;SDS011;9213;50.858;3.964;2023-02-28T11:37:54;2.50;;;2.30;;
18176;SDS011;9213;50.858;3.964;2023-02-28T11:40:24;3.37;;;2.47;;
18176;SDS011;9213;50.858;3.964;2023-02-28T11:43:01;2.50;;;2.30;;
18176;SDS011;9213;50.858;3.964;2023-02-28T11:45:38;2.77;;;2.40;;
18176;SDS011;9213;50.858;3.964;2023-02-28T11:48:22;2.70;;;2.50;;
18176;SDS011;9213;50.858;3.964;2023-02-28T11:50:58;3.30;;;2.80;;
18176;SDS011;9213;50.858;3.964;2023-02-28T11:53:44;3.10;;;2.80;;
18176;SDS011;9213;50.858;3.964;2023-02-28T11:56:33;2.40;;;2.27;;
18176;SDS011;9213;50.858;3.964;2023-02-28T11:59:18;2.97;;;2.77;;
18176;SDS011;9213;50.858;3.964;2023-02-28T12:04:58;3.63;;;2.40;;
18176;SDS011;9213;50.858;3.964;2023-02-28T12:07:37;2.80;;;2.50;;
18176;SDS011;9213;50.858;3.964;2023-02-28T12:10:14;2.60;;;2.40;;
18176;SDS011;9213;50.858;3.964;2023-02-28T12:12:53;2.63;;;2.40;;
18176;SDS011;9213;50.858;3.964;2023-02-28T12:18:33;2.90;;;2.60;;
18176;SDS011;9213;50.858;3.964;2023-02-28T12:21:24;3.10;;;2.80;;
18176;SDS011;9213;50.858;3.964;2023-02-28T12:24:03;2.60;;;2.40;;
18176;SDS011;9213;50.858;3.964;2023-02-28T12:26:43;3.13;;;2.70;;
18176;SDS011;9213;50.858;3.964;2023-02-28T12:29:15;3.00;;;2.80;;
18176;SDS011;9213;50.858;3.964;2023-02-28T12:31:46;3.03;;;2.73;;
18176;SDS011;9213;50.858;3.964;2023-02-28T12:34:18;3.83;;;2.63;;
18176;SDS011;9213;50.858;3.964;2023-02-28T12:36:48;4.10;;;2.73;;
18176;SDS011;9213;50.858;3.964;2023-02-28T12:39:18;3.67;;;2.80;;
18176;SDS011;9213;50.858;3.964;2023-02-28T12:41:51;3.20;;;2.87;;
18176;SDS011;9213;50.858;3.964;2023-02-28T12:44:32;3.37;;;3.03;;
18176;SDS011;9213;50.858;3.964;2023-02-28T12:47:02;3.40;;;3.10;;
18176;SDS011;9213;50.858;3.964;2023-02-28T12:49:33;3.00;;;2.80;;
18176;SDS011;9213;50.858;3.964;2023-02-28T12:52:03;3.00;;;2.77;;
18176;SDS011;9213;50.858;3.964;2023-02-28T12:54:35;3.80;;;3.10;;
18176;SDS011;9213;50.858;3.964;2023-02-28T12:57:09;3.40;;;3.10;;
18176;SDS011;9213;50.858;3.964;2023-02-28T12:59:45;3.03;;;2.80;;
18176;SDS011;9213;50.858;3.964;2023-02-28T13:08:27;2.90;;;2.70;;
18176;SDS011;9213;50.858;3.964;2023-02-28T13:11:22;3.07;;;2.70;;
18176;SDS011;9213;50.858;3.964;2023-02-28T13:13:56;4.27;;;3.60;;
18176;SDS011;9213;50.858;3.964;2023-02-28T13:16:26;3.43;;;3.00;;
18176;SDS011;9213;50.858;3.964;2023-02-28T13:18:53;3.47;;;3.17;;
18176;SDS011;9213;50.858;3.964;2023-02-28T13:21:41;3.30;;;3.00;;
18176;SDS011;9213;50.858;3.964;2023-02-28T13:24:10;2.83;;;2.63;;
18176;SDS011;9213;50.858;3.964;2023-02-28T13:29:49;3.20;;;2.90;;
18176;SDS011;9213;50.858;3.964;2023-02-28T13:38:12;2.87;;;2.67;;
18176;SDS011;9213;50.858;3.964;2023-02-28T13:40:48;3.33;;;2.80;;
18176;SDS011;9213;50.858;3.964;2023-02-28T13:43:16;2.60;;;2.40;;
18176;SDS011;9213;50.858;3.964;2023-02-28T13:48:35;4.23;;;2.67;;
18176;SDS011;9213;50.858;3.964;2023-02-28T13:54:03;4.43;;;2.70;;
18176;SDS011;9213;50.858;3.964;2023-02-28T13:56:42;3.27;;;2.80;;
18176;SDS011;9213;50.858;3.964;2023-02-28T13:59:20;3.40;;;2.67;;
18176;SDS011;9213;50.858;3.964;2023-02-28T14:01:57;3.77;;;2.83;;
18176;SDS011;9213;50.858;3.964;2023-02-28T14:04:46;3.67;;;2.77;;
18176;SDS011;9213;50.858;3.964;2023-02-28T14:07:21;2.90;;;2.70;;
18176;SDS011;9213;50.858;3.964;2023-02-28T14:09:54;3.30;;;3.00;;
18176;SDS011;9213;50.858;3.964;2023-02-28T14:15:36;2.90;;;2.70;;
18176;SDS011;9213;50.858;3.964;2023-02-28T14:18:13;3.17;;;2.97;;
18176;SDS011;9213;50.858;3.964;2023-02-28T14:20:48;3.37;;;3.07;;
18176;SDS011;9213;50.858;3.964;2023-02-28T14:23:21;4.03;;;3.20;;
18176;SDS011;9213;50.858;3.964;2023-02-28T14:26:02;3.63;;;3.20;;
18176;SDS011;9213;50.858;3.964;2023-02-28T14:28:43;3.40;;;3.10;;
18176;SDS011;9213;50.858;3.964;2023-02-28T14:31:23;4.37;;;3.17;;
18176;SDS011;9213;50.858;3.964;2023-02-28T14:34:02;3.57;;;3.27;;
18176;SDS011;9213;50.858;3.964;2023-02-28T14:36:41;3.70;;;3.40;;
18176;SDS011;9213;50.858;3.964;2023-02-28T14:39:11;4.23;;;3.20;;
18176;SDS011;9213;50.858;3.964;2023-02-28T14:41:41;3.90;;;3.30;;
18176;SDS011;9213;50.858;3.964;2023-02-28T14:44:15;3.20;;;3.00;;
18176;SDS011;9213;50.858;3.964;2023-02-28T14:46:44;3.90;;;3.50;;
18176;SDS011;9213;50.858;3.964;2023-02-28T14:49:13;3.97;;;3.30;;
18176;SDS011;9213;50.858;3.964;2023-02-28T14:52:02;3.83;;;3.50;;
18176;SDS011;9213;50.858;3.964;2023-02-28T14:54:35;3.93;;;3.20;;
18176;SDS011;9213;50.858;3.964;2023-02-28T14:57:02;3.90;;;3.50;;
18176;SDS011;9213;50.858;3.964;2023-02-28T14:59:30;3.60;;;3.30;;
18176;SDS011;9213;50.858;3.964;2023-02-28T15:04:52;4.00;;;3.37;;
18176;SDS011;9213;50.858;3.964;2023-02-28T15:07:22;4.47;;;4.07;;
18176;SDS011;9213;50.858;3.964;2023-02-28T15:10:10;4.93;;;3.80;;
18176;SDS011;9213;50.858;3.964;2023-02-28T15:12:41;3.53;;;3.23;;
18176;SDS011;9213;50.858;3.964;2023-02-28T15:15:16;3.77;;;3.47;;
18176;SDS011;9213;50.858;3.964;2023-02-28T15:17:45;3.93;;;2.93;;
18176;SDS011;9213;50.858;3.964;2023-02-28T15:20:16;3.90;;;3.60;;
18176;SDS011;9213;50.858;3.964;2023-02-28T15:22:45;4.63;;;3.40;;
18176;SDS011;9213;50.858;3.964;2023-02-28T15:25:15;5.73;;;3.50;;
18176;SDS011;9213;50.858;3.964;2023-02-28T15:27:46;6.20;;;3.37;;
18176;SDS011;9213;50.858;3.964;2023-02-28T15:30:16;4.00;;;3.53;;
18176;SDS011;9213;50.858;3.964;2023-02-28T15:32:44;4.00;;;3.60;;
18176;SDS011;9213;50.858;3.964;2023-02-28T15:35:30;4.00;;;3.70;;
18176;SDS011;9213;50.858;3.964;2023-02-28T15:38:02;4.87;;;3.53;;
18176;SDS011;9213;50.858;3.964;2023-02-28T15:40:31;4.17;;;3.73;;
18176;SDS011;9213;50.858;3.964;2023-02-28T15:43:04;4.43;;;3.60;;
18176;SDS011;9213;50.858;3.964;2023-02-28T15:45:33;4.50;;;4.20;;
18176;SDS011;9213;50.858;3.964;2023-02-28T15:48:06;3.53;;;3.23;;
18176;SDS011;9213;50.858;3.964;2023-02-28T15:50:47;3.90;;;3.60;;
18176;SDS011;9213;50.858;3.964;2023-02-28T15:53:19;4.20;;;3.60;;
18176;SDS011;9213;50.858;3.964;2023-02-28T15:55:52;5.83;;;3.70;;
18176;SDS011;9213;50.858;3.964;2023-02-28T15:58:21;4.33;;;3.70;;
18176;SDS011;9213;50.858;3.964;2023-02-28T16:00:59;4.37;;;3.97;;
18176;SDS011;9213;50.858;3.964;2023-02-28T16:03:35;6.80;;;4.40;;